sensor_id;sensor_type;location;lat;lon;timestamp;temperature;humidity
67598;DHT22;62026;39.230;9.122;2023-02-01T00:00:24;10.30;69.10
67598;DHT22;62026;39.230;9.122;2023-02-01T00:02:50;10.30;68.90
67598;DHT22;62026;39.230;9.122;2023-02-01T00:05:16;10.30;68.70
67598;DHT22;62026;39.230;9.122;2023-02-01T00:07:42;10.30;68.60
67598;DHT22;62026;39.230;9.122;2023-02-01T00:10:09;10.30;68.40
67598;DHT22;62026;39.230;9.122;2023-02-01T00:12:35;10.20;68.40
67598;DHT22;62026;39.230;9.122;2023-02-01T00:15:02;10.20;68.40
67598;DHT22;62026;39.230;9.122;2023-02-01T00:17:28;10.20;68.50
67598;DHT22;62026;39.230;9.122;2023-02-01T00:19:54;10.20;68.50
67598;DHT22;62026;39.230;9.122;2023-02-01T00:22:20;10.20;68.50
67598;DHT22;62026;39.230;9.122;2023-02-01T00:24:46;10.20;68.50
67598;DHT22;62026;39.230;9.122;2023-02-01T00:27:15;10.10;68.70
67598;DHT22;62026;39.230;9.122;2023-02-01T00:29:44;10.20;68.90
67598;DHT22;62026;39.230;9.122;2023-02-01T00:32:10;10.10;68.80
67598;DHT22;62026;39.230;9.122;2023-02-01T00:34:37;10.10;68.90
67598;DHT22;62026;39.230;9.122;2023-02-01T00:37:03;10.10;68.80
67598;DHT22;62026;39.230;9.122;2023-02-01T00:39:29;10.10;68.70
67598;DHT22;62026;39.230;9.122;2023-02-01T00:41:55;10.00;68.70
67598;DHT22;62026;39.230;9.122;2023-02-01T00:44:21;10.00;68.80
67598;DHT22;62026;39.230;9.122;2023-02-01T00:46:47;10.00;68.70
67598;DHT22;62026;39.230;9.122;2023-02-01T00:49:13;10.00;68.80
67598;DHT22;62026;39.230;9.122;2023-02-01T00:51:39;10.00;68.70
67598;DHT22;62026;39.230;9.122;2023-02-01T00:54:05;9.90;68.60
67598;DHT22;62026;39.230;9.122;2023-02-01T00:56:31;9.80;68.70
67598;DHT22;62026;39.230;9.122;2023-02-01T00:58:58;9.80;68.90
67598;DHT22;62026;39.230;9.122;2023-02-01T01:01:26;9.80;68.90
67598;DHT22;62026;39.230;9.122;2023-02-01T01:03:56;9.80;68.90
67598;DHT22;62026;39.230;9.122;2023-02-01T01:06:29;9.80;68.70
67598;DHT22;62026;39.230;9.122;2023-02-01T01:08:58;9.80;68.90
67598;DHT22;62026;39.230;9.122;2023-02-01T01:11:29;9.80;68.90
67598;DHT22;62026;39.230;9.122;2023-02-01T01:13:58;9.80;68.80
67598;DHT22;62026;39.230;9.122;2023-02-01T01:16:26;9.80;69.00
67598;DHT22;62026;39.230;9.122;2023-02-01T01:18:55;9.80;69.00
67598;DHT22;62026;39.230;9.122;2023-02-01T01:21:22;9.80;68.90
67598;DHT22;62026;39.230;9.122;2023-02-01T01:23:49;9.80;68.80
67598;DHT22;62026;39.230;9.122;2023-02-01T01:26:21;9.80;68.70
67598;DHT22;62026;39.230;9.122;2023-02-01T01:28:49;9.80;68.50
67598;DHT22;62026;39.230;9.122;2023-02-01T01:31:18;9.70;68.50
67598;DHT22;62026;39.230;9.122;2023-02-01T01:33:51;9.70;68.50
67598;DHT22;62026;39.230;9.122;2023-02-01T01:36:19;9.70;68.40
67598;DHT22;62026;39.230;9.122;2023-02-01T01:38:46;9.70;68.50
67598;DHT22;62026;39.230;9.122;2023-02-01T01:41:20;9.60;68.30
67598;DHT22;62026;39.230;9.122;2023-02-01T01:46:32;9.60;67.90
67598;DHT22;62026;39.230;9.122;2023-02-01T01:49:11;9.60;67.90
67598;DHT22;62026;39.230;9.122;2023-02-01T01:51:49;9.60;67.80
67598;DHT22;62026;39.230;9.122;2023-02-01T01:54:29;9.60;67.80
67598;DHT22;62026;39.230;9.122;2023-02-01T01:57:03;9.50;68.00
67598;DHT22;62026;39.230;9.122;2023-02-01T01:59:36;9.50;68.00
67598;DHT22;62026;39.230;9.122;2023-02-01T02:02:05;9.40;68.00
67598;DHT22;62026;39.230;9.122;2023-02-01T02:04:33;9.40;68.30
67598;DHT22;62026;39.230;9.122;2023-02-01T02:07:07;9.40;68.30
67598;DHT22;62026;39.230;9.122;2023-02-01T02:09:37;9.40;68.20
67598;DHT22;62026;39.230;9.122;2023-02-01T02:12:04;9.40;68.20
67598;DHT22;62026;39.230;9.122;2023-02-01T02:14:30;9.30;68.50
67598;DHT22;62026;39.230;9.122;2023-02-01T02:17:11;9.30;68.80
67598;DHT22;62026;39.230;9.122;2023-02-01T02:34:45;9.20;68.90
67598;DHT22;62026;39.230;9.122;2023-02-01T02:40:15;9.20;68.60
67598;DHT22;62026;39.230;9.122;2023-02-01T02:43:12;9.20;68.50
67598;DHT22;62026;39.230;9.122;2023-02-01T02:46:03;9.20;68.50
67598;DHT22;62026;39.230;9.122;2023-02-01T02:49:27;9.20;68.30
67598;DHT22;62026;39.230;9.122;2023-02-01T02:52:13;9.20;68.30
67598;DHT22;62026;39.230;9.122;2023-02-01T02:55:13;9.20;68.30
67598;DHT22;62026;39.230;9.122;2023-02-01T02:57:41;9.20;68.30
67598;DHT22;62026;39.230;9.122;2023-02-01T03:00:31;9.10;68.20
67598;DHT22;62026;39.230;9.122;2023-02-01T03:03:18;9.10;68.30
67598;DHT22;62026;39.230;9.122;2023-02-01T03:06:03;9.10;68.30
67598;DHT22;62026;39.230;9.122;2023-02-01T03:08:31;9.10;68.20
67598;DHT22;62026;39.230;9.122;2023-02-01T03:13:53;9.10;68.20
67598;DHT22;62026;39.230;9.122;2023-02-01T03:16:31;9.00;68.20
67598;DHT22;62026;39.230;9.122;2023-02-01T03:24:49;9.00;68.20
67598;DHT22;62026;39.230;9.122;2023-02-01T03:27:42;8.90;68.50
67598;DHT22;62026;39.230;9.122;2023-02-01T03:30:37;9.00;68.30
67598;DHT22;62026;39.230;9.122;2023-02-01T03:33:11;9.00;68.10
67598;DHT22;62026;39.230;9.122;2023-02-01T03:36:02;8.90;68.20
67598;DHT22;62026;39.230;9.122;2023-02-01T03:38:41;8.90;68.40
67598;DHT22;62026;39.230;9.122;2023-02-01T03:41:54;8.90;68.50
67598;DHT22;62026;39.230;9.122;2023-02-01T03:44:28;8.80;68.40
67598;DHT22;62026;39.230;9.122;2023-02-01T03:47:21;8.80;68.20
67598;DHT22;62026;39.230;9.122;2023-02-01T03:50:00;8.80;68.10
67598;DHT22;62026;39.230;9.122;2023-02-01T03:52:45;8.80;68.30
67598;DHT22;62026;39.230;9.122;2023-02-01T03:55:16;8.80;68.20
67598;DHT22;62026;39.230;9.122;2023-02-01T03:57:55;8.90;68.30
67598;DHT22;62026;39.230;9.122;2023-02-01T04:00:26;8.90;68.30
67598;DHT22;62026;39.230;9.122;2023-02-01T04:02:55;8.80;68.40
67598;DHT22;62026;39.230;9.122;2023-02-01T04:05:21;8.80;68.50
67598;DHT22;62026;39.230;9.122;2023-02-01T04:07:58;8.80;68.50
67598;DHT22;62026;39.230;9.122;2023-02-01T04:10:24;8.80;68.40
67598;DHT22;62026;39.230;9.122;2023-02-01T04:12:50;8.90;68.50
67598;DHT22;62026;39.230;9.122;2023-02-01T04:15:16;8.80;68.60
67598;DHT22;62026;39.230;9.122;2023-02-01T04:17:42;8.80;68.60
67598;DHT22;62026;39.230;9.122;2023-02-01T04:20:09;8.80;68.50
67598;DHT22;62026;39.230;9.122;2023-02-01T04:22:35;8.80;68.50
67598;DHT22;62026;39.230;9.122;2023-02-01T04:25:03;8.80;68.40
67598;DHT22;62026;39.230;9.122;2023-02-01T04:27:31;8.80;68.30
67598;DHT22;62026;39.230;9.122;2023-02-01T04:29:57;8.80;68.30
67598;DHT22;62026;39.230;9.122;2023-02-01T04:32:23;8.70;68.20
67598;DHT22;62026;39.230;9.122;2023-02-01T04:34:49;8.70;68.30
67598;DHT22;62026;39.230;9.122;2023-02-01T04:37:15;8.70;68.20
67598;DHT22;62026;39.230;9.122;2023-02-01T04:39:41;8.70;68.10
67598;DHT22;62026;39.230;9.122;2023-02-01T04:42:07;8.70;67.90
67598;DHT22;62026;39.230;9.122;2023-02-01T04:44:34;8.70;67.90
67598;DHT22;62026;39.230;9.122;2023-02-01T04:47:02;8.70;67.90
67598;DHT22;62026;39.230;9.122;2023-02-01T04:49:28;8.70;67.90
67598;DHT22;62026;39.230;9.122;2023-02-01T04:51:54;8.70;67.70
67598;DHT22;62026;39.230;9.122;2023-02-01T04:54:20;8.70;67.80
67598;DHT22;62026;39.230;9.122;2023-02-01T04:56:46;8.70;67.70
67598;DHT22;62026;39.230;9.122;2023-02-01T04:59:12;8.70;67.80
67598;DHT22;62026;39.230;9.122;2023-02-01T05:01:38;8.70;67.60
67598;DHT22;62026;39.230;9.122;2023-02-01T05:04:04;8.60;67.60
67598;DHT22;62026;39.230;9.122;2023-02-01T05:06:30;8.60;67.60
67598;DHT22;62026;39.230;9.122;2023-02-01T05:08:56;8.60;67.70
67598;DHT22;62026;39.230;9.122;2023-02-01T05:11:22;8.60;67.50
67598;DHT22;62026;39.230;9.122;2023-02-01T05:14:07;8.60;67.40
67598;DHT22;62026;39.230;9.122;2023-02-01T05:16:33;8.50;67.30
67598;DHT22;62026;39.230;9.122;2023-02-01T05:18:59;8.50;67.30
67598;DHT22;62026;39.230;9.122;2023-02-01T05:21:25;8.50;67.20
67598;DHT22;62026;39.230;9.122;2023-02-01T05:23:51;8.60;66.90
67598;DHT22;62026;39.230;9.122;2023-02-01T05:26:37;8.60;66.70
67598;DHT22;62026;39.230;9.122;2023-02-01T05:29:04;8.60;66.50
67598;DHT22;62026;39.230;9.122;2023-02-01T05:31:31;8.50;66.40
67598;DHT22;62026;39.230;9.122;2023-02-01T05:33:57;8.50;66.40
67598;DHT22;62026;39.230;9.122;2023-02-01T05:36:24;8.50;66.40
67598;DHT22;62026;39.230;9.122;2023-02-01T05:38:50;8.40;66.50
67598;DHT22;62026;39.230;9.122;2023-02-01T05:41:16;8.40;66.40
67598;DHT22;62026;39.230;9.122;2023-02-01T05:43:42;8.50;66.30
67598;DHT22;62026;39.230;9.122;2023-02-01T05:46:08;8.40;66.40
67598;DHT22;62026;39.230;9.122;2023-02-01T05:48:38;8.40;66.30
67598;DHT22;62026;39.230;9.122;2023-02-01T05:51:05;8.40;66.20
67598;DHT22;62026;39.230;9.122;2023-02-01T05:53:32;8.40;66.30
67598;DHT22;62026;39.230;9.122;2023-02-01T05:55:58;8.30;66.30
67598;DHT22;62026;39.230;9.122;2023-02-01T05:58:24;8.30;66.30
67598;DHT22;62026;39.230;9.122;2023-02-01T06:00:50;8.30;66.50
67598;DHT22;62026;39.230;9.122;2023-02-01T06:03:16;8.20;66.50
67598;DHT22;62026;39.230;9.122;2023-02-01T06:05:47;8.30;66.50
67598;DHT22;62026;39.230;9.122;2023-02-01T06:08:13;8.30;66.40
67598;DHT22;62026;39.230;9.122;2023-02-01T06:10:40;8.30;66.50
67598;DHT22;62026;39.230;9.122;2023-02-01T06:13:06;8.30;66.70
67598;DHT22;62026;39.230;9.122;2023-02-01T06:15:32;8.20;66.70
67598;DHT22;62026;39.230;9.122;2023-02-01T06:17:58;8.20;66.80
67598;DHT22;62026;39.230;9.122;2023-02-01T06:20:24;8.20;66.80
67598;DHT22;62026;39.230;9.122;2023-02-01T06:22:50;8.20;67.00
67598;DHT22;62026;39.230;9.122;2023-02-01T06:25:18;8.20;67.00
67598;DHT22;62026;39.230;9.122;2023-02-01T06:27:45;8.20;67.00
67598;DHT22;62026;39.230;9.122;2023-02-01T06:30:12;8.20;67.00
67598;DHT22;62026;39.230;9.122;2023-02-01T06:32:42;8.20;67.00
67598;DHT22;62026;39.230;9.122;2023-02-01T06:35:09;8.20;67.20
67598;DHT22;62026;39.230;9.122;2023-02-01T06:37:41;8.20;67.20
67598;DHT22;62026;39.230;9.122;2023-02-01T06:40:08;8.20;67.30
67598;DHT22;62026;39.230;9.122;2023-02-01T06:42:34;8.20;67.30
67598;DHT22;62026;39.230;9.122;2023-02-01T06:45:01;8.20;67.20
67598;DHT22;62026;39.230;9.122;2023-02-01T06:47:27;8.20;67.20
67598;DHT22;62026;39.230;9.122;2023-02-01T06:49:53;8.20;67.30
67598;DHT22;62026;39.230;9.122;2023-02-01T06:52:18;8.20;67.20
67598;DHT22;62026;39.230;9.122;2023-02-01T06:54:44;8.20;67.10
67598;DHT22;62026;39.230;9.122;2023-02-01T06:57:11;8.30;67.10
67598;DHT22;62026;39.230;9.122;2023-02-01T06:59:37;8.30;66.90
67598;DHT22;62026;39.230;9.122;2023-02-01T07:02:03;8.40;66.90
67598;DHT22;62026;39.230;9.122;2023-02-01T07:04:29;8.50;66.70
67598;DHT22;62026;39.230;9.122;2023-02-01T07:06:55;8.60;66.40
67598;DHT22;62026;39.230;9.122;2023-02-01T07:09:21;8.80;66.10
67598;DHT22;62026;39.230;9.122;2023-02-01T07:11:48;8.80;66.00
67598;DHT22;62026;39.230;9.122;2023-02-01T07:14:14;8.90;65.80
67598;DHT22;62026;39.230;9.122;2023-02-01T07:16:40;9.00;65.50
67598;DHT22;62026;39.230;9.122;2023-02-01T07:19:06;9.10;65.30
67598;DHT22;62026;39.230;9.122;2023-02-01T07:21:32;9.20;65.10
67598;DHT22;62026;39.230;9.122;2023-02-01T07:23:59;9.40;64.80
67598;DHT22;62026;39.230;9.122;2023-02-01T07:26:25;9.50;64.60
67598;DHT22;62026;39.230;9.122;2023-02-01T07:28:51;9.50;64.40
67598;DHT22;62026;39.230;9.122;2023-02-01T07:31:19;9.60;64.70
67598;DHT22;62026;39.230;9.122;2023-02-01T07:33:48;9.60;64.50
67598;DHT22;62026;39.230;9.122;2023-02-01T07:36:17;9.50;63.50
67598;DHT22;62026;39.230;9.122;2023-02-01T07:38:45;9.60;63.60
67598;DHT22;62026;39.230;9.122;2023-02-01T07:41:12;9.60;63.60
67598;DHT22;62026;39.230;9.122;2023-02-01T07:43:38;9.70;63.50
67598;DHT22;62026;39.230;9.122;2023-02-01T07:46:05;9.80;63.50
67598;DHT22;62026;39.230;9.122;2023-02-01T07:48:32;10.10;62.80
67598;DHT22;62026;39.230;9.122;2023-02-01T07:51:08;10.10;62.50
67598;DHT22;62026;39.230;9.122;2023-02-01T07:53:36;10.30;62.10
67598;DHT22;62026;39.230;9.122;2023-02-01T07:56:03;10.50;61.70
67598;DHT22;62026;39.230;9.122;2023-02-01T07:58:30;10.80;61.30
67598;DHT22;62026;39.230;9.122;2023-02-01T08:00:56;11.00;60.60
67598;DHT22;62026;39.230;9.122;2023-02-01T08:03:41;11.10;60.30
67598;DHT22;62026;39.230;9.122;2023-02-01T08:06:07;11.50;59.70
67598;DHT22;62026;39.230;9.122;2023-02-01T08:08:33;11.50;59.20
67598;DHT22;62026;39.230;9.122;2023-02-01T08:11:01;11.70;58.80
67598;DHT22;62026;39.230;9.122;2023-02-01T08:13:29;11.80;58.60
67598;DHT22;62026;39.230;9.122;2023-02-01T08:15:59;12.20;58.00
67598;DHT22;62026;39.230;9.122;2023-02-01T08:18:25;12.50;57.40
67598;DHT22;62026;39.230;9.122;2023-02-01T08:20:52;12.80;56.80
67598;DHT22;62026;39.230;9.122;2023-02-01T08:23:20;13.00;56.00
67598;DHT22;62026;39.230;9.122;2023-02-01T08:25:47;13.20;55.80
67598;DHT22;62026;39.230;9.122;2023-02-01T08:28:13;13.40;55.40
67598;DHT22;62026;39.230;9.122;2023-02-01T08:30:40;13.60;55.00
67598;DHT22;62026;39.230;9.122;2023-02-01T08:33:08;13.80;54.50
67598;DHT22;62026;39.230;9.122;2023-02-01T08:35:35;14.00;54.30
67598;DHT22;62026;39.230;9.122;2023-02-01T08:38:03;14.10;53.80
67598;DHT22;62026;39.230;9.122;2023-02-01T08:40:30;14.30;53.60
67598;DHT22;62026;39.230;9.122;2023-02-01T08:42:57;14.40;53.10
67598;DHT22;62026;39.230;9.122;2023-02-01T08:45:26;14.50;52.90
67598;DHT22;62026;39.230;9.122;2023-02-01T08:47:56;14.70;52.70
67598;DHT22;62026;39.230;9.122;2023-02-01T08:50:23;14.70;52.60
67598;DHT22;62026;39.230;9.122;2023-02-01T08:52:50;14.90;52.50
67598;DHT22;62026;39.230;9.122;2023-02-01T08:55:16;15.00;52.00
67598;DHT22;62026;39.230;9.122;2023-02-01T08:57:43;15.10;51.80
67598;DHT22;62026;39.230;9.122;2023-02-01T09:00:13;15.20;51.80
67598;DHT22;62026;39.230;9.122;2023-02-01T09:02:41;15.30;52.00
67598;DHT22;62026;39.230;9.122;2023-02-01T09:05:08;15.40;51.80
67598;DHT22;62026;39.230;9.122;2023-02-01T09:07:35;15.60;51.40
67598;DHT22;62026;39.230;9.122;2023-02-01T09:10:01;15.70;51.00
67598;DHT22;62026;39.230;9.122;2023-02-01T09:12:29;15.70;51.20
67598;DHT22;62026;39.230;9.122;2023-02-01T09:14:57;15.80;51.40
67598;DHT22;62026;39.230;9.122;2023-02-01T09:17:28;15.90;51.40
67598;DHT22;62026;39.230;9.122;2023-02-01T09:19:55;16.00;51.00
67598;DHT22;62026;39.230;9.122;2023-02-01T09:22:21;16.20;50.90
67598;DHT22;62026;39.230;9.122;2023-02-01T09:24:47;16.30;50.50
67598;DHT22;62026;39.230;9.122;2023-02-01T09:27:13;16.40;50.30
67598;DHT22;62026;39.230;9.122;2023-02-01T09:29:39;16.50;50.20
67598;DHT22;62026;39.230;9.122;2023-02-01T09:32:05;16.60;50.30
67598;DHT22;62026;39.230;9.122;2023-02-01T09:34:33;16.70;50.10
67598;DHT22;62026;39.230;9.122;2023-02-01T09:36:59;16.70;50.10
67598;DHT22;62026;39.230;9.122;2023-02-01T09:39:25;16.80;50.10
67598;DHT22;62026;39.230;9.122;2023-02-01T09:42:15;16.90;50.10
67598;DHT22;62026;39.230;9.122;2023-02-01T09:47:53;17.10;49.60
67598;DHT22;62026;39.230;9.122;2023-02-01T09:50:32;17.20;49.50
67598;DHT22;62026;39.230;9.122;2023-02-01T09:53:02;17.30;49.70
67598;DHT22;62026;39.230;9.122;2023-02-01T09:55:43;17.30;49.50
67598;DHT22;62026;39.230;9.122;2023-02-01T10:00:50;17.50;49.30
67598;DHT22;62026;39.230;9.122;2023-02-01T10:03:18;17.60;49.50
67598;DHT22;62026;39.230;9.122;2023-02-01T10:07:19;17.70;49.00
67598;DHT22;62026;39.230;9.122;2023-02-01T10:10:07;17.80;48.90
67598;DHT22;62026;39.230;9.122;2023-02-01T10:13:02;17.90;48.90
67598;DHT22;62026;39.230;9.122;2023-02-01T10:18:45;18.10;48.10
67598;DHT22;62026;39.230;9.122;2023-02-01T10:22:01;17.90;48.40
67598;DHT22;62026;39.230;9.122;2023-02-01T10:24:40;17.80;48.70
67598;DHT22;62026;39.230;9.122;2023-02-01T10:30:39;17.90;48.70
67598;DHT22;62026;39.230;9.122;2023-02-01T10:33:12;18.10;48.50
67598;DHT22;62026;39.230;9.122;2023-02-01T10:35:40;18.10;48.40
67598;DHT22;62026;39.230;9.122;2023-02-01T10:38:26;18.20;48.50
67598;DHT22;62026;39.230;9.122;2023-02-01T10:41:01;18.20;48.50
67598;DHT22;62026;39.230;9.122;2023-02-01T10:43:30;18.30;48.30
67598;DHT22;62026;39.230;9.122;2023-02-01T10:45:56;18.30;48.30
67598;DHT22;62026;39.230;9.122;2023-02-01T10:48:23;18.10;48.20
67598;DHT22;62026;39.230;9.122;2023-02-01T10:50:55;18.00;48.30
67598;DHT22;62026;39.230;9.122;2023-02-01T10:53:41;17.80;48.70
67598;DHT22;62026;39.230;9.122;2023-02-01T10:56:13;17.80;48.80
67598;DHT22;62026;39.230;9.122;2023-02-01T10:58:47;17.90;48.80
67598;DHT22;62026;39.230;9.122;2023-02-01T11:01:41;18.00;48.00
67598;DHT22;62026;39.230;9.122;2023-02-01T11:04:14;18.00;48.10
67598;DHT22;62026;39.230;9.122;2023-02-01T11:06:45;18.00;47.80
67598;DHT22;62026;39.230;9.122;2023-02-01T11:09:38;18.00;48.10
67598;DHT22;62026;39.230;9.122;2023-02-01T11:12:27;18.00;48.10
67598;DHT22;62026;39.230;9.122;2023-02-01T11:17:50;17.60;48.30
67598;DHT22;62026;39.230;9.122;2023-02-01T11:20:20;17.40;48.30
67598;DHT22;62026;39.230;9.122;2023-02-01T11:23:00;17.30;48.60
67598;DHT22;62026;39.230;9.122;2023-02-01T11:25:27;17.00;48.60
67598;DHT22;62026;39.230;9.122;2023-02-01T11:27:54;17.00;49.30
67598;DHT22;62026;39.230;9.122;2023-02-01T11:30:37;16.90;49.10
67598;DHT22;62026;39.230;9.122;2023-02-01T11:33:17;16.90;50.10
67598;DHT22;62026;39.230;9.122;2023-02-01T11:35:47;16.80;50.00
67598;DHT22;62026;39.230;9.122;2023-02-01T11:38:29;16.60;50.00
67598;DHT22;62026;39.230;9.122;2023-02-01T11:43:53;16.50;50.30
67598;DHT22;62026;39.230;9.122;2023-02-01T11:46:29;16.50;50.70
67598;DHT22;62026;39.230;9.122;2023-02-01T11:49:12;16.50;51.10
67598;DHT22;62026;39.230;9.122;2023-02-01T12:18:32;15.90;51.90
67598;DHT22;62026;39.230;9.122;2023-02-01T12:21:30;15.90;52.00
67598;DHT22;62026;39.230;9.122;2023-02-01T12:39:24;15.70;52.70
67598;DHT22;62026;39.230;9.122;2023-02-01T12:43:13;15.70;52.70
67598;DHT22;62026;39.230;9.122;2023-02-01T12:45:26;15.70;52.70
67598;DHT22;62026;39.230;9.122;2023-02-01T12:47:57;15.60;52.80
67598;DHT22;62026;39.230;9.122;2023-02-01T12:50:54;15.50;53.10
67598;DHT22;62026;39.230;9.122;2023-02-01T12:57:00;15.40;53.40
67598;DHT22;62026;39.230;9.122;2023-02-01T12:59:38;15.40;53.90
67598;DHT22;62026;39.230;9.122;2023-02-01T13:02:28;15.40;54.00
67598;DHT22;62026;39.230;9.122;2023-02-01T13:05:14;15.30;54.30
67598;DHT22;62026;39.230;9.122;2023-02-01T13:08:09;15.30;54.70
67598;DHT22;62026;39.230;9.122;2023-02-01T13:10:45;15.30;55.00
67598;DHT22;62026;39.230;9.122;2023-02-01T13:13:35;15.30;54.80
67598;DHT22;62026;39.230;9.122;2023-02-01T13:20:00;15.30;54.90
67598;DHT22;62026;39.230;9.122;2023-02-01T13:22:30;15.30;54.80
67598;DHT22;62026;39.230;9.122;2023-02-01T13:25:27;15.30;54.80
67598;DHT22;62026;39.230;9.122;2023-02-01T13:28:19;15.20;54.60
67598;DHT22;62026;39.230;9.122;2023-02-01T13:42:55;15.20;54.90
67598;DHT22;62026;39.230;9.122;2023-02-01T13:45:30;15.20;54.80
67598;DHT22;62026;39.230;9.122;2023-02-01T13:48:04;15.20;55.00
67598;DHT22;62026;39.230;9.122;2023-02-01T13:50:37;15.20;54.80
67598;DHT22;62026;39.230;9.122;2023-02-01T13:55:40;15.20;54.80
67598;DHT22;62026;39.230;9.122;2023-02-01T13:58:33;15.10;55.00
67598;DHT22;62026;39.230;9.122;2023-02-01T14:03:54;15.10;55.30
67598;DHT22;62026;39.230;9.122;2023-02-01T14:11:38;15.10;55.00
67598;DHT22;62026;39.230;9.122;2023-02-01T14:16:42;15.10;55.40
67598;DHT22;62026;39.230;9.122;2023-02-01T14:19:24;15.00;55.70
67598;DHT22;62026;39.230;9.122;2023-02-01T14:21:57;15.00;55.40
67598;DHT22;62026;39.230;9.122;2023-02-01T14:24:32;15.00;55.70
67598;DHT22;62026;39.230;9.122;2023-02-01T14:27:24;15.10;57.40
67598;DHT22;62026;39.230;9.122;2023-02-01T14:29:58;15.20;58.10
67598;DHT22;62026;39.230;9.122;2023-02-01T14:32:30;15.30;57.10
67598;DHT22;62026;39.230;9.122;2023-02-01T14:35:06;15.30;56.40
67598;DHT22;62026;39.230;9.122;2023-02-01T14:37:44;15.30;55.90
67598;DHT22;62026;39.230;9.122;2023-02-01T14:55:56;14.70;55.10
67598;DHT22;62026;39.230;9.122;2023-02-01T15:04:12;14.70;55.20
67598;DHT22;62026;39.230;9.122;2023-02-01T15:06:58;14.70;55.00
67598;DHT22;62026;39.230;9.122;2023-02-01T15:09:45;14.70;55.30
67598;DHT22;62026;39.230;9.122;2023-02-01T15:15:18;14.70;55.00
67598;DHT22;62026;39.230;9.122;2023-02-01T15:17:52;14.70;55.30
67598;DHT22;62026;39.230;9.122;2023-02-01T15:20:28;14.60;54.90
67598;DHT22;62026;39.230;9.122;2023-02-01T15:23:00;14.60;54.90
67598;DHT22;62026;39.230;9.122;2023-02-01T15:25:36;14.50;54.90
67598;DHT22;62026;39.230;9.122;2023-02-01T15:28:04;14.50;55.10
67598;DHT22;62026;39.230;9.122;2023-02-01T15:30:35;14.50;55.10
67598;DHT22;62026;39.230;9.122;2023-02-01T15:35:44;14.50;54.60
67598;DHT22;62026;39.230;9.122;2023-02-01T15:41:30;14.50;54.90
67598;DHT22;62026;39.230;9.122;2023-02-01T15:46:39;14.40;54.70
67598;DHT22;62026;39.230;9.122;2023-02-01T15:51:55;14.40;54.80
67598;DHT22;62026;39.230;9.122;2023-02-01T15:54:30;14.40;55.10
67598;DHT22;62026;39.230;9.122;2023-02-01T15:57:03;14.40;55.20
67598;DHT22;62026;39.230;9.122;2023-02-01T15:59:44;14.40;55.20
67598;DHT22;62026;39.230;9.122;2023-02-01T16:02:28;14.40;55.40
67598;DHT22;62026;39.230;9.122;2023-02-01T16:05:04;14.40;55.20
67598;DHT22;62026;39.230;9.122;2023-02-01T16:10:45;14.30;55.40
67598;DHT22;62026;39.230;9.122;2023-02-01T16:13:14;14.30;55.70
67598;DHT22;62026;39.230;9.122;2023-02-01T16:15:41;14.30;55.90
67598;DHT22;62026;39.230;9.122;2023-02-01T16:18:08;14.30;55.90
67598;DHT22;62026;39.230;9.122;2023-02-01T16:20:36;14.30;56.40
67598;DHT22;62026;39.230;9.122;2023-02-01T16:23:05;14.20;57.10
67598;DHT22;62026;39.230;9.122;2023-02-01T16:25:36;14.20;57.50
67598;DHT22;62026;39.230;9.122;2023-02-01T16:28:03;14.20;57.90
67598;DHT22;62026;39.230;9.122;2023-02-01T16:30:31;14.20;58.20
67598;DHT22;62026;39.230;9.122;2023-02-01T16:32:59;14.20;58.50
67598;DHT22;62026;39.230;9.122;2023-02-01T16:35:30;14.10;59.10
67598;DHT22;62026;39.230;9.122;2023-02-01T16:38:14;14.10;59.70
67598;DHT22;62026;39.230;9.122;2023-02-01T16:40:45;14.10;59.90
67598;DHT22;62026;39.230;9.122;2023-02-01T16:43:18;14.00;60.10
67598;DHT22;62026;39.230;9.122;2023-02-01T16:45:50;14.00;60.10
67598;DHT22;62026;39.230;9.122;2023-02-01T16:48:24;14.00;60.20
67598;DHT22;62026;39.230;9.122;2023-02-01T16:51:13;14.00;60.30
67598;DHT22;62026;39.230;9.122;2023-02-01T16:53:42;14.00;60.60
67598;DHT22;62026;39.230;9.122;2023-02-01T16:56:13;14.00;60.70
67598;DHT22;62026;39.230;9.122;2023-02-01T16:58:45;14.00;60.90
67598;DHT22;62026;39.230;9.122;2023-02-01T17:01:12;14.00;61.10
67598;DHT22;62026;39.230;9.122;2023-02-01T17:03:40;14.00;61.30
67598;DHT22;62026;39.230;9.122;2023-02-01T17:06:11;14.00;61.40
67598;DHT22;62026;39.230;9.122;2023-02-01T17:08:42;14.00;61.60
67598;DHT22;62026;39.230;9.122;2023-02-01T17:11:12;14.00;61.80
67598;DHT22;62026;39.230;9.122;2023-02-01T17:13:39;13.90;61.80
67598;DHT22;62026;39.230;9.122;2023-02-01T17:16:29;13.90;61.90
67598;DHT22;62026;39.230;9.122;2023-02-01T17:19:02;13.90;62.00
67598;DHT22;62026;39.230;9.122;2023-02-01T17:21:38;13.90;61.90
67598;DHT22;62026;39.230;9.122;2023-02-01T17:24:11;13.80;62.10
67598;DHT22;62026;39.230;9.122;2023-02-01T17:26:40;13.80;62.00
67598;DHT22;62026;39.230;9.122;2023-02-01T17:29:07;13.80;62.00
67598;DHT22;62026;39.230;9.122;2023-02-01T17:31:37;13.70;62.10
67598;DHT22;62026;39.230;9.122;2023-02-01T17:34:07;13.70;62.20
67598;DHT22;62026;39.230;9.122;2023-02-01T17:36:34;13.60;62.30
67598;DHT22;62026;39.230;9.122;2023-02-01T17:39:02;13.60;62.40
67598;DHT22;62026;39.230;9.122;2023-02-01T17:41:28;13.60;62.40
67598;DHT22;62026;39.230;9.122;2023-02-01T17:43:54;13.50;62.50
67598;DHT22;62026;39.230;9.122;2023-02-01T17:46:21;13.50;62.50
67598;DHT22;62026;39.230;9.122;2023-02-01T17:48:54;13.50;62.40
67598;DHT22;62026;39.230;9.122;2023-02-01T17:51:27;13.50;62.60
67598;DHT22;62026;39.230;9.122;2023-02-01T17:53:55;13.40;62.60
67598;DHT22;62026;39.230;9.122;2023-02-01T17:56:23;13.40;62.80
67598;DHT22;62026;39.230;9.122;2023-02-01T17:58:50;13.40;62.80
67598;DHT22;62026;39.230;9.122;2023-02-01T18:01:21;13.40;62.90
67598;DHT22;62026;39.230;9.122;2023-02-01T18:03:50;13.40;63.00
67598;DHT22;62026;39.230;9.122;2023-02-01T18:06:22;13.40;63.10
67598;DHT22;62026;39.230;9.122;2023-02-01T18:08:53;13.30;63.00
67598;DHT22;62026;39.230;9.122;2023-02-01T18:11:21;13.40;63.00
67598;DHT22;62026;39.230;9.122;2023-02-01T18:13:51;13.40;63.10
67598;DHT22;62026;39.230;9.122;2023-02-01T18:16:25;13.40;63.20
67598;DHT22;62026;39.230;9.122;2023-02-01T18:18:52;13.30;62.90
67598;DHT22;62026;39.230;9.122;2023-02-01T18:21:21;13.30;63.00
67598;DHT22;62026;39.230;9.122;2023-02-01T18:23:48;13.30;63.00
67598;DHT22;62026;39.230;9.122;2023-02-01T18:26:16;13.30;63.00
67598;DHT22;62026;39.230;9.122;2023-02-01T18:28:43;13.30;62.90
67598;DHT22;62026;39.230;9.122;2023-02-01T18:31:26;13.30;62.90
67598;DHT22;62026;39.230;9.122;2023-02-01T18:33:56;13.30;62.90
67598;DHT22;62026;39.230;9.122;2023-02-01T18:36:23;13.30;62.90
67598;DHT22;62026;39.230;9.122;2023-02-01T18:38:49;13.30;62.80
67598;DHT22;62026;39.230;9.122;2023-02-01T18:41:18;13.30;62.90
67598;DHT22;62026;39.230;9.122;2023-02-01T18:43:49;13.30;62.70
67598;DHT22;62026;39.230;9.122;2023-02-01T18:46:17;13.30;62.70
67598;DHT22;62026;39.230;9.122;2023-02-01T18:48:44;13.20;62.70